sensor_id;sensor_type;location;lat;lon;timestamp;P1;durP1;ratioP1;P2;durP2;ratioP2
66093;SDS011;52876;49.394;10.892;2022-10-31T00:01:19;124.57;;;31.33;;
66093;SDS011;52876;49.394;10.892;2022-10-31T00:03:45;111.70;;;33.60;;
66093;SDS011;52876;49.394;10.892;2022-10-31T00:06:13;69.97;;;27.60;;
66093;SDS011;52876;49.394;10.892;2022-10-31T00:08:39;56.33;;;24.93;;
66093;SDS011;52876;49.394;10.892;2022-10-31T00:11:09;40.73;;;21.87;;
66093;SDS011;52876;49.394;10.892;2022-10-31T00:13:35;44.70;;;23.33;;
66093;SDS011;52876;49.394;10.892;2022-10-31T00:16:01;75.37;;;31.47;;
66093;SDS011;52876;49.394;10.892;2022-10-31T00:18:27;64.47;;;25.07;;
66093;SDS011;52876;49.394;10.892;2022-10-31T00:20:58;141.07;;;50.77;;
66093;SDS011;52876;49.394;10.892;2022-10-31T00:23:24;52.23;;;26.77;;
66093;SDS011;52876;49.394;10.892;2022-10-31T00:25:52;128.07;;;46.93;;
66093;SDS011;52876;49.394;10.892;2022-10-31T00:28:19;61.47;;;29.80;;
66093;SDS011;52876;49.394;10.892;2022-10-31T00:30:46;85.70;;;35.77;;
66093;SDS011;52876;49.394;10.892;2022-10-31T00:33:12;61.40;;;30.17;;
66093;SDS011;52876;49.394;10.892;2022-10-31T00:35:40;72.13;;;33.90;;
66093;SDS011;52876;49.394;10.892;2022-10-31T00:38:06;67.00;;;31.27;;
66093;SDS011;52876;49.394;10.892;2022-10-31T00:40:33;72.03;;;35.20;;
66093;SDS011;52876;49.394;10.892;2022-10-31T00:42:59;141.37;;;61.30;;
66093;SDS011;52876;49.394;10.892;2022-10-31T00:45:27;93.97;;;43.30;;
66093;SDS011;52876;49.394;10.892;2022-10-31T00:47:53;166.03;;;68.97;;
66093;SDS011;52876;49.394;10.892;2022-10-31T00:50:19;73.47;;;36.67;;
66093;SDS011;52876;49.394;10.892;2022-10-31T00:52:46;72.50;;;35.47;;
66093;SDS011;52876;49.394;10.892;2022-10-31T00:55:12;71.83;;;34.57;;
66093;SDS011;52876;49.394;10.892;2022-10-31T00:57:40;55.37;;;30.40;;
66093;SDS011;52876;49.394;10.892;2022-10-31T01:00:06;62.17;;;29.90;;
66093;SDS011;52876;49.394;10.892;2022-10-31T01:02:35;60.37;;;30.20;;
66093;SDS011;52876;49.394;10.892;2022-10-31T01:05:02;85.00;;;38.17;;
66093;SDS011;52876;49.394;10.892;2022-10-31T01:07:29;57.70;;;30.97;;
66093;SDS011;52876;49.394;10.892;2022-10-31T01:09:55;129.43;;;52.47;;
66093;SDS011;52876;49.394;10.892;2022-10-31T01:12:21;55.77;;;29.90;;
66093;SDS011;52876;49.394;10.892;2022-10-31T01:14:47;59.07;;;30.50;;
66093;SDS011;52876;49.394;10.892;2022-10-31T01:17:13;77.37;;;35.97;;
66093;SDS011;52876;49.394;10.892;2022-10-31T01:19:41;69.73;;;33.90;;
66093;SDS011;52876;49.394;10.892;2022-10-31T01:22:08;50.70;;;25.33;;
66093;SDS011;52876;49.394;10.892;2022-10-31T01:24:34;58.90;;;29.73;;
66093;SDS011;52876;49.394;10.892;2022-10-31T01:27:00;112.90;;;47.83;;
66093;SDS011;52876;49.394;10.892;2022-10-31T01:29:26;56.97;;;29.50;;
66093;SDS011;52876;49.394;10.892;2022-10-31T01:31:54;94.57;;;37.30;;
66093;SDS011;52876;49.394;10.892;2022-10-31T01:34:20;48.67;;;24.73;;
66093;SDS011;52876;49.394;10.892;2022-10-31T01:36:49;59.93;;;27.07;;
66093;SDS011;52876;49.394;10.892;2022-10-31T01:39:15;49.60;;;23.63;;
66093;SDS011;52876;49.394;10.892;2022-10-31T01:41:43;42.47;;;19.33;;
66093;SDS011;52876;49.394;10.892;2022-10-31T01:46:55;82.03;;;28.07;;
66093;SDS011;52876;49.394;10.892;2022-10-31T01:49:23;44.60;;;21.20;;
66093;SDS011;52876;49.394;10.892;2022-10-31T01:51:54;55.70;;;24.90;;
66093;SDS011;52876;49.394;10.892;2022-10-31T01:54:22;46.17;;;21.63;;
66093;SDS011;52876;49.394;10.892;2022-10-31T01:56:51;99.33;;;34.40;;
66093;SDS011;52876;49.394;10.892;2022-10-31T01:59:19;46.40;;;23.30;;
66093;SDS011;52876;49.394;10.892;2022-10-31T02:01:48;67.17;;;27.43;;
66093;SDS011;52876;49.394;10.892;2022-10-31T02:04:15;23.60;;;18.53;;
66093;SDS011;52876;49.394;10.892;2022-10-31T02:06:44;28.97;;;22.17;;
66093;SDS011;52876;49.394;10.892;2022-10-31T02:09:16;32.47;;;23.73;;
66093;SDS011;52876;49.394;10.892;2022-10-31T02:11:42;28.40;;;20.93;;
66093;SDS011;52876;49.394;10.892;2022-10-31T02:14:09;41.43;;;23.70;;
66093;SDS011;52876;49.394;10.892;2022-10-31T02:16:36;29.43;;;22.57;;
66093;SDS011;52876;49.394;10.892;2022-10-31T02:19:02;32.80;;;21.97;;
66093;SDS011;52876;49.394;10.892;2022-10-31T02:21:31;27.83;;;22.20;;
66093;SDS011;52876;49.394;10.892;2022-10-31T02:24:07;37.70;;;24.80;;
66093;SDS011;52876;49.394;10.892;2022-10-31T02:26:52;37.03;;;26.10;;
66093;SDS011;52876;49.394;10.892;2022-10-31T02:29:43;37.93;;;26.17;;
66093;SDS011;52876;49.394;10.892;2022-10-31T02:32:26;48.30;;;28.00;;
66093;SDS011;52876;49.394;10.892;2022-10-31T02:34:57;58.57;;;29.93;;
66093;SDS011;52876;49.394;10.892;2022-10-31T02:37:30;33.83;;;25.83;;
66093;SDS011;52876;49.394;10.892;2022-10-31T02:40:04;47.70;;;26.70;;
66093;SDS011;52876;49.394;10.892;2022-10-31T02:42:39;55.20;;;30.73;;
66093;SDS011;52876;49.394;10.892;2022-10-31T02:45:12;35.00;;;25.90;;
66093;SDS011;52876;49.394;10.892;2022-10-31T02:47:47;31.00;;;24.07;;
66093;SDS011;52876;49.394;10.892;2022-10-31T02:50:16;37.83;;;26.43;;
66093;SDS011;52876;49.394;10.892;2022-10-31T02:52:49;37.77;;;27.03;;
66093;SDS011;52876;49.394;10.892;2022-10-31T02:58:10;36.93;;;27.60;;
66093;SDS011;52876;49.394;10.892;2022-10-31T03:00:39;40.00;;;30.00;;
66093;SDS011;52876;49.394;10.892;2022-10-31T03:03:14;33.37;;;26.33;;
66093;SDS011;52876;49.394;10.892;2022-10-31T03:05:52;26.70;;;22.50;;
66093;SDS011;52876;49.394;10.892;2022-10-31T03:08:26;40.30;;;26.17;;
66093;SDS011;52876;49.394;10.892;2022-10-31T03:10:59;34.73;;;24.10;;
66093;SDS011;52876;49.394;10.892;2022-10-31T03:13:30;33.83;;;23.20;;
66093;SDS011;52876;49.394;10.892;2022-10-31T03:16:04;39.33;;;26.20;;
66093;SDS011;52876;49.394;10.892;2022-10-31T03:18:37;32.30;;;24.47;;
66093;SDS011;52876;49.394;10.892;2022-10-31T03:21:07;28.23;;;23.40;;
66093;SDS011;52876;49.394;10.892;2022-10-31T03:23:37;33.20;;;22.87;;
66093;SDS011;52876;49.394;10.892;2022-10-31T03:26:05;36.20;;;28.40;;
66093;SDS011;52876;49.394;10.892;2022-10-31T03:28:35;47.43;;;28.80;;
66093;SDS011;52876;49.394;10.892;2022-10-31T03:31:05;31.00;;;24.67;;
66093;SDS011;52876;49.394;10.892;2022-10-31T03:33:34;36.50;;;24.23;;
66093;SDS011;52876;49.394;10.892;2022-10-31T03:36:04;39.17;;;26.67;;
66093;SDS011;52876;49.394;10.892;2022-10-31T03:38:32;35.40;;;24.60;;
66093;SDS011;52876;49.394;10.892;2022-10-31T03:41:02;45.77;;;27.97;;
66093;SDS011;52876;49.394;10.892;2022-10-31T03:43:32;31.93;;;22.57;;
66093;SDS011;52876;49.394;10.892;2022-10-31T03:46:04;23.10;;;19.30;;
66093;SDS011;52876;49.394;10.892;2022-10-31T03:48:30;26.57;;;21.13;;
66093;SDS011;52876;49.394;10.892;2022-10-31T03:51:01;35.50;;;25.67;;
66093;SDS011;52876;49.394;10.892;2022-10-31T03:53:32;25.20;;;21.03;;
66093;SDS011;52876;49.394;10.892;2022-10-31T03:56:05;25.87;;;19.43;;
66093;SDS011;52876;49.394;10.892;2022-10-31T03:58:36;21.20;;;18.13;;
66093;SDS011;52876;49.394;10.892;2022-10-31T04:01:09;16.90;;;15.20;;
66093;SDS011;52876;49.394;10.892;2022-10-31T04:03:38;21.00;;;17.73;;
66093;SDS011;52876;49.394;10.892;2022-10-31T04:06:06;13.43;;;11.93;;
66093;SDS011;52876;49.394;10.892;2022-10-31T04:08:36;17.47;;;14.00;;
66093;SDS011;52876;49.394;10.892;2022-10-31T04:11:06;17.10;;;14.30;;
66093;SDS011;52876;49.394;10.892;2022-10-31T04:13:34;30.50;;;17.43;;
66093;SDS011;52876;49.394;10.892;2022-10-31T04:16:03;23.33;;;15.33;;
66093;SDS011;52876;49.394;10.892;2022-10-31T04:18:29;25.47;;;17.80;;
66093;SDS011;52876;49.394;10.892;2022-10-31T04:21:01;44.10;;;21.97;;
66093;SDS011;52876;49.394;10.892;2022-10-31T04:23:30;22.20;;;15.67;;
66093;SDS011;52876;49.394;10.892;2022-10-31T04:25:58;35.90;;;19.53;;
66093;SDS011;52876;49.394;10.892;2022-10-31T04:28:24;24.57;;;15.97;;
66093;SDS011;52876;49.394;10.892;2022-10-31T04:30:52;50.90;;;24.87;;
66093;SDS011;52876;49.394;10.892;2022-10-31T04:33:18;31.93;;;21.93;;
66093;SDS011;52876;49.394;10.892;2022-10-31T04:35:46;36.73;;;22.17;;
66093;SDS011;52876;49.394;10.892;2022-10-31T04:38:12;30.53;;;22.57;;
66093;SDS011;52876;49.394;10.892;2022-10-31T04:40:41;26.93;;;20.90;;
66093;SDS011;52876;49.394;10.892;2022-10-31T04:43:07;24.53;;;18.50;;
66093;SDS011;52876;49.394;10.892;2022-10-31T04:45:34;28.77;;;22.00;;
66093;SDS011;52876;49.394;10.892;2022-10-31T04:48:00;25.37;;;19.70;;
66093;SDS011;52876;49.394;10.892;2022-10-31T04:50:28;25.60;;;17.77;;
66093;SDS011;52876;49.394;10.892;2022-10-31T04:52:54;28.20;;;18.70;;
66093;SDS011;52876;49.394;10.892;2022-10-31T04:55:20;20.10;;;15.37;;
66093;SDS011;52876;49.394;10.892;2022-10-31T04:57:49;27.20;;;18.53;;
66093;SDS011;52876;49.394;10.892;2022-10-31T05:00:16;29.60;;;19.23;;
66093;SDS011;52876;49.394;10.892;2022-10-31T05:02:45;26.23;;;21.77;;
66093;SDS011;52876;49.394;10.892;2022-10-31T05:05:11;22.50;;;18.57;;
66093;SDS011;52876;49.394;10.892;2022-10-31T05:07:39;26.53;;;21.43;;
66093;SDS011;52876;49.394;10.892;2022-10-31T05:10:05;17.57;;;15.73;;
66093;SDS011;52876;49.394;10.892;2022-10-31T05:12:33;19.40;;;14.97;;
66093;SDS011;52876;49.394;10.892;2022-10-31T05:15:00;24.83;;;19.00;;
66093;SDS011;52876;49.394;10.892;2022-10-31T05:17:27;20.93;;;15.83;;
66093;SDS011;52876;49.394;10.892;2022-10-31T05:19:53;18.30;;;16.30;;
66093;SDS011;52876;49.394;10.892;2022-10-31T05:22:21;16.40;;;13.83;;
66093;SDS011;52876;49.394;10.892;2022-10-31T05:24:47;19.83;;;14.17;;
66093;SDS011;52876;49.394;10.892;2022-10-31T05:27:13;15.43;;;13.87;;
66093;SDS011;52876;49.394;10.892;2022-10-31T05:29:39;16.63;;;14.83;;
66093;SDS011;52876;49.394;10.892;2022-10-31T05:32:06;15.30;;;13.70;;
66093;SDS011;52876;49.394;10.892;2022-10-31T05:34:32;19.57;;;15.50;;
66093;SDS011;52876;49.394;10.892;2022-10-31T05:36:58;23.73;;;17.27;;
66093;SDS011;52876;49.394;10.892;2022-10-31T05:39:24;20.63;;;14.67;;
66093;SDS011;52876;49.394;10.892;2022-10-31T05:41:51;41.00;;;22.80;;
66093;SDS011;52876;49.394;10.892;2022-10-31T05:44:18;23.20;;;17.80;;
66093;SDS011;52876;49.394;10.892;2022-10-31T05:46:45;26.63;;;19.03;;
66093;SDS011;52876;49.394;10.892;2022-10-31T05:49:13;15.47;;;13.70;;
66093;SDS011;52876;49.394;10.892;2022-10-31T05:51:40;19.27;;;16.30;;
66093;SDS011;52876;49.394;10.892;2022-10-31T05:54:06;20.13;;;16.00;;
66093;SDS011;52876;49.394;10.892;2022-10-31T05:56:32;14.47;;;12.80;;
66093;SDS011;52876;49.394;10.892;2022-10-31T05:58:58;16.87;;;15.17;;
66093;SDS011;52876;49.394;10.892;2022-10-31T06:01:24;16.47;;;14.50;;
66093;SDS011;52876;49.394;10.892;2022-10-31T06:03:50;15.10;;;11.93;;
66093;SDS011;52876;49.394;10.892;2022-10-31T06:06:19;14.47;;;12.90;;
66093;SDS011;52876;49.394;10.892;2022-10-31T06:08:45;14.07;;;11.90;;
66093;SDS011;52876;49.394;10.892;2022-10-31T06:11:12;13.10;;;11.37;;
66093;SDS011;52876;49.394;10.892;2022-10-31T06:13:38;14.37;;;11.90;;
66093;SDS011;52876;49.394;10.892;2022-10-31T06:16:04;14.40;;;12.40;;
66093;SDS011;52876;49.394;10.892;2022-10-31T06:18:30;19.73;;;12.60;;
66093;SDS011;52876;49.394;10.892;2022-10-31T06:20:56;23.87;;;17.27;;
66093;SDS011;52876;49.394;10.892;2022-10-31T06:23:24;25.07;;;16.97;;
66093;SDS011;52876;49.394;10.892;2022-10-31T06:25:51;20.73;;;17.33;;
66093;SDS011;52876;49.394;10.892;2022-10-31T06:28:17;17.40;;;15.50;;
66093;SDS011;52876;49.394;10.892;2022-10-31T06:30:45;19.47;;;16.97;;
66093;SDS011;52876;49.394;10.892;2022-10-31T06:33:11;23.47;;;17.47;;
66093;SDS011;52876;49.394;10.892;2022-10-31T06:35:37;21.23;;;17.30;;
66093;SDS011;52876;49.394;10.892;2022-10-31T06:38:03;18.40;;;15.70;;
66093;SDS011;52876;49.394;10.892;2022-10-31T06:40:32;13.93;;;12.63;;
66093;SDS011;52876;49.394;10.892;2022-10-31T06:42:58;20.10;;;17.40;;
66093;SDS011;52876;49.394;10.892;2022-10-31T06:45:24;17.73;;;15.83;;
66093;SDS011;52876;49.394;10.892;2022-10-31T06:47:50;20.63;;;16.23;;
66093;SDS011;52876;49.394;10.892;2022-10-31T06:50:16;18.93;;;16.87;;
66093;SDS011;52876;49.394;10.892;2022-10-31T06:52:49;21.27;;;19.07;;
66093;SDS011;52876;49.394;10.892;2022-10-31T06:55:15;27.87;;;24.93;;
66093;SDS011;52876;49.394;10.892;2022-10-31T06:57:51;25.50;;;23.00;;
66093;SDS011;52876;49.394;10.892;2022-10-31T07:00:17;19.90;;;17.90;;
66093;SDS011;52876;49.394;10.892;2022-10-31T07:02:52;21.40;;;19.37;;
66093;SDS011;52876;49.394;10.892;2022-10-31T07:05:20;17.87;;;15.97;;
66093;SDS011;52876;49.394;10.892;2022-10-31T07:07:51;20.00;;;17.53;;
66093;SDS011;52876;49.394;10.892;2022-10-31T07:10:17;17.40;;;14.40;;
66093;SDS011;52876;49.394;10.892;2022-10-31T07:12:45;17.90;;;16.07;;
66093;SDS011;52876;49.394;10.892;2022-10-31T07:15:12;18.67;;;16.77;;
66093;SDS011;52876;49.394;10.892;2022-10-31T07:17:40;20.43;;;18.30;;
66093;SDS011;52876;49.394;10.892;2022-10-31T07:20:06;18.93;;;17.13;;
66093;SDS011;52876;49.394;10.892;2022-10-31T07:22:34;19.90;;;17.97;;
66093;SDS011;52876;49.394;10.892;2022-10-31T07:25:00;21.83;;;19.53;;
66093;SDS011;52876;49.394;10.892;2022-10-31T07:27:28;16.13;;;14.63;;
66093;SDS011;52876;49.394;10.892;2022-10-31T07:29:54;18.07;;;16.53;;
66093;SDS011;52876;49.394;10.892;2022-10-31T07:32:21;12.63;;;11.50;;
66093;SDS011;52876;49.394;10.892;2022-10-31T07:34:47;11.77;;;10.67;;
66093;SDS011;52876;49.394;10.892;2022-10-31T07:37:14;11.00;;;10.10;;
66093;SDS011;52876;49.394;10.892;2022-10-31T07:39:40;11.77;;;10.67;;
66093;SDS011;52876;49.394;10.892;2022-10-31T07:42:06;13.43;;;10.90;;
66093;SDS011;52876;49.394;10.892;2022-10-31T07:44:32;11.17;;;10.00;;
66093;SDS011;52876;49.394;10.892;2022-10-31T07:47:00;11.50;;;10.50;;
66093;SDS011;52876;49.394;10.892;2022-10-31T07:49:27;9.23;;;8.20;;
66093;SDS011;52876;49.394;10.892;2022-10-31T07:51:55;10.90;;;9.80;;
66093;SDS011;52876;49.394;10.892;2022-10-31T07:54:21;13.87;;;12.73;;
66093;SDS011;52876;49.394;10.892;2022-10-31T07:56:47;15.43;;;13.97;;
66093;SDS011;52876;49.394;10.892;2022-10-31T07:59:13;14.57;;;13.10;;
66093;SDS011;52876;49.394;10.892;2022-10-31T08:01:40;10.70;;;9.60;;
66093;SDS011;52876;49.394;10.892;2022-10-31T08:04:06;10.40;;;8.77;;
66093;SDS011;52876;49.394;10.892;2022-10-31T08:06:35;11.10;;;10.13;;
66093;SDS011;52876;49.394;10.892;2022-10-31T08:09:01;12.50;;;10.90;;
66093;SDS011;52876;49.394;10.892;2022-10-31T08:11:27;13.77;;;10.17;;
66093;SDS011;52876;49.394;10.892;2022-10-31T08:13:53;41.80;;;17.53;;
66093;SDS011;52876;49.394;10.892;2022-10-31T08:16:19;17.60;;;11.03;;
66093;SDS011;52876;49.394;10.892;2022-10-31T08:18:45;24.20;;;12.00;;
66093;SDS011;52876;49.394;10.892;2022-10-31T08:21:11;18.83;;;10.63;;
66093;SDS011;52876;49.394;10.892;2022-10-31T08:23:38;21.60;;;11.50;;
66093;SDS011;52876;49.394;10.892;2022-10-31T08:26:04;18.57;;;11.07;;
66093;SDS011;52876;49.394;10.892;2022-10-31T08:28:30;55.23;;;19.80;;
66093;SDS011;52876;49.394;10.892;2022-10-31T08:30:57;70.13;;;22.90;;
66093;SDS011;52876;49.394;10.892;2022-10-31T08:33:23;23.10;;;11.70;;
66093;SDS011;52876;49.394;10.892;2022-10-31T08:35:50;20.03;;;14.33;;
66093;SDS011;52876;49.394;10.892;2022-10-31T08:38:16;23.37;;;12.90;;
66093;SDS011;52876;49.394;10.892;2022-10-31T08:40:47;36.20;;;16.33;;
66093;SDS011;52876;49.394;10.892;2022-10-31T08:43:14;7.53;;;6.83;;
66093;SDS011;52876;49.394;10.892;2022-10-31T08:45:43;36.07;;;14.70;;
66093;SDS011;52876;49.394;10.892;2022-10-31T08:48:10;38.23;;;16.03;;
66093;SDS011;52876;49.394;10.892;2022-10-31T08:50:36;33.93;;;14.70;;
66093;SDS011;52876;49.394;10.892;2022-10-31T08:53:03;53.93;;;20.03;;
66093;SDS011;52876;49.394;10.892;2022-10-31T08:55:29;37.33;;;16.30;;
66093;SDS011;52876;49.394;10.892;2022-10-31T08:57:57;63.37;;;22.20;;
66093;SDS011;52876;49.394;10.892;2022-10-31T09:00:23;36.83;;;16.40;;
66093;SDS011;52876;49.394;10.892;2022-10-31T09:02:54;58.70;;;22.20;;
66093;SDS011;52876;49.394;10.892;2022-10-31T09:05:20;7.17;;;6.67;;
66093;SDS011;52876;49.394;10.892;2022-10-31T09:07:47;10.20;;;9.37;;
66093;SDS011;52876;49.394;10.892;2022-10-31T09:10:14;11.20;;;10.10;;
66093;SDS011;52876;49.394;10.892;2022-10-31T09:12:41;11.23;;;9.70;;
66093;SDS011;52876;49.394;10.892;2022-10-31T09:15:09;17.97;;;10.70;;
66093;SDS011;52876;49.394;10.892;2022-10-31T09:17:37;40.17;;;15.10;;
66093;SDS011;52876;49.394;10.892;2022-10-31T09:20:03;62.67;;;21.20;;
66093;SDS011;52876;49.394;10.892;2022-10-31T09:22:31;45.67;;;17.40;;
66093;SDS011;52876;49.394;10.892;2022-10-31T09:24:57;83.67;;;26.90;;
66093;SDS011;52876;49.394;10.892;2022-10-31T09:27:23;37.13;;;14.93;;
66093;SDS011;52876;49.394;10.892;2022-10-31T09:29:49;104.00;;;32.03;;
66093;SDS011;52876;49.394;10.892;2022-10-31T09:32:17;44.60;;;17.30;;
66093;SDS011;52876;49.394;10.892;2022-10-31T09:34:43;38.20;;;16.40;;
66093;SDS011;52876;49.394;10.892;2022-10-31T09:37:11;43.93;;;18.03;;
66093;SDS011;52876;49.394;10.892;2022-10-31T09:39:37;37.50;;;15.60;;
66093;SDS011;52876;49.394;10.892;2022-10-31T09:42:08;33.33;;;14.30;;
66093;SDS011;52876;49.394;10.892;2022-10-31T09:44:41;42.27;;;17.53;;
66093;SDS011;52876;49.394;10.892;2022-10-31T09:47:11;57.63;;;21.10;;
66093;SDS011;52876;49.394;10.892;2022-10-31T09:49:51;28.13;;;12.40;;
66093;SDS011;52876;49.394;10.892;2022-10-31T09:52:22;33.73;;;13.80;;
66093;SDS011;52876;49.394;10.892;2022-10-31T09:54:51;82.73;;;27.87;;
66093;SDS011;52876;49.394;10.892;2022-10-31T09:57:20;38.40;;;16.20;;
66093;SDS011;52876;49.394;10.892;2022-10-31T09:59:48;40.47;;;16.30;;
66093;SDS011;52876;49.394;10.892;2022-10-31T10:02:16;43.70;;;17.80;;
66093;SDS011;52876;49.394;10.892;2022-10-31T10:04:44;38.60;;;16.67;;
66093;SDS011;52876;49.394;10.892;2022-10-31T10:07:19;33.43;;;14.33;;
66093;SDS011;52876;49.394;10.892;2022-10-31T10:09:47;47.47;;;17.80;;
66093;SDS011;52876;49.394;10.892;2022-10-31T10:12:15;27.47;;;12.43;;
66093;SDS011;52876;49.394;10.892;2022-10-31T10:14:46;40.73;;;16.50;;
66093;SDS011;52876;49.394;10.892;2022-10-31T10:17:17;37.57;;;16.13;;
66093;SDS011;52876;49.394;10.892;2022-10-31T10:19:57;88.27;;;29.63;;
66093;SDS011;52876;49.394;10.892;2022-10-31T10:22:31;55.00;;;20.60;;
66093;SDS011;52876;49.394;10.892;2022-10-31T10:25:03;85.50;;;26.00;;
66093;SDS011;52876;49.394;10.892;2022-10-31T10:27:39;8.50;;;6.97;;
66093;SDS011;52876;49.394;10.892;2022-10-31T10:30:13;9.13;;;8.33;;
66093;SDS011;52876;49.394;10.892;2022-10-31T10:32:43;8.67;;;7.60;;
66093;SDS011;52876;49.394;10.892;2022-10-31T10:35:14;7.23;;;6.63;;
66093;SDS011;52876;49.394;10.892;2022-10-31T10:37:49;9.30;;;8.40;;
66093;SDS011;52876;49.394;10.892;2022-10-31T10:40:23;11.30;;;10.30;;
66093;SDS011;52876;49.394;10.892;2022-10-31T10:42:53;11.03;;;9.83;;
66093;SDS011;52876;49.394;10.892;2022-10-31T10:45:42;10.43;;;9.50;;
66093;SDS011;52876;49.394;10.892;2022-10-31T10:48:14;9.60;;;8.70;;
66093;SDS011;52876;49.394;10.892;2022-10-31T10:50:52;10.23;;;8.90;;
66093;SDS011;52876;49.394;10.892;2022-10-31T10:53:28;10.43;;;8.77;;
66093;SDS011;52876;49.394;10.892;2022-10-31T10:56:11;8.23;;;7.57;;
66093;SDS011;52876;49.394;10.892;2022-10-31T10:58:42;10.43;;;9.23;;
66093;SDS011;52876;49.394;10.892;2022-10-31T11:01:11;8.47;;;7.77;;
66093;SDS011;52876;49.394;10.892;2022-10-31T11:03:39;8.93;;;8.13;;
66093;SDS011;52876;49.394;10.892;2022-10-31T11:06:15;8.73;;;7.87;;
66093;SDS011;52876;49.394;10.892;2022-10-31T11:08:44;9.27;;;7.53;;
66093;SDS011;52876;49.394;10.892;2022-10-31T11:11:11;8.43;;;7.50;;
66093;SDS011;52876;49.394;10.892;2022-10-31T11:13:48;9.47;;;7.80;;
66093;SDS011;52876;49.394;10.892;2022-10-31T11:16:28;7.77;;;7.20;;
66093;SDS011;52876;49.394;10.892;2022-10-31T11:19:07;8.17;;;7.40;;
66093;SDS011;52876;49.394;10.892;2022-10-31T11:21:40;8.00;;;7.20;;
66093;SDS011;52876;49.394;10.892;2022-10-31T11:24:12;6.93;;;6.23;;
66093;SDS011;52876;49.394;10.892;2022-10-31T11:26:42;7.70;;;7.10;;
66093;SDS011;52876;49.394;10.892;2022-10-31T11:29:13;7.90;;;7.20;;
66093;SDS011;52876;49.394;10.892;2022-10-31T11:31:41;12.07;;;7.10;;
66093;SDS011;52876;49.394;10.892;2022-10-31T11:34:12;9.20;;;8.30;;
66093;SDS011;52876;49.394;10.892;2022-10-31T11:36:44;8.63;;;8.00;;
66093;SDS011;52876;49.394;10.892;2022-10-31T11:39:16;9.00;;;8.23;;
66093;SDS011;52876;49.394;10.892;2022-10-31T11:41:44;11.10;;;7.33;;
66093;SDS011;52876;49.394;10.892;2022-10-31T11:44:12;8.47;;;7.77;;
66093;SDS011;52876;49.394;10.892;2022-10-31T11:46:42;9.43;;;8.23;;
66093;SDS011;52876;49.394;10.892;2022-10-31T11:49:13;8.67;;;7.90;;
66093;SDS011;52876;49.394;10.892;2022-10-31T11:51:46;8.80;;;7.90;;
66093;SDS011;52876;49.394;10.892;2022-10-31T11:54:19;10.23;;;7.43;;
66093;SDS011;52876;49.394;10.892;2022-10-31T11:56:48;10.13;;;7.60;;
66093;SDS011;52876;49.394;10.892;2022-10-31T11:59:18;7.97;;;7.10;;
66093;SDS011;52876;49.394;10.892;2022-10-31T12:01:50;8.53;;;7.67;;
66093;SDS011;52876;49.394;10.892;2022-10-31T12:04:17;7.57;;;6.80;;
66093;SDS011;52876;49.394;10.892;2022-10-31T12:06:49;10.40;;;8.27;;
66093;SDS011;52876;49.394;10.892;2022-10-31T12:09:20;9.17;;;8.07;;
66093;SDS011;52876;49.394;10.892;2022-10-31T12:11:52;8.40;;;6.70;;
66093;SDS011;52876;49.394;10.892;2022-10-31T12:14:30;16.00;;;7.00;;
66093;SDS011;52876;49.394;10.892;2022-10-31T12:17:03;8.40;;;7.13;;
66093;SDS011;52876;49.394;10.892;2022-10-31T12:19:35;8.53;;;6.50;;
66093;SDS011;52876;49.394;10.892;2022-10-31T12:22:09;10.07;;;6.90;;
66093;SDS011;52876;49.394;10.892;2022-10-31T12:24:48;8.03;;;6.77;;
66093;SDS011;52876;49.394;10.892;2022-10-31T12:27:28;11.33;;;7.83;;
66093;SDS011;52876;49.394;10.892;2022-10-31T12:30:10;7.63;;;6.70;;
66093;SDS011;52876;49.394;10.892;2022-10-31T12:32:47;10.80;;;6.03;;
66093;SDS011;52876;49.394;10.892;2022-10-31T12:35:33;8.70;;;6.83;;
66093;SDS011;52876;49.394;10.892;2022-10-31T12:38:23;7.40;;;6.20;;
66093;SDS011;52876;49.394;10.892;2022-10-31T12:41:09;9.57;;;6.23;;
66093;SDS011;52876;49.394;10.892;2022-10-31T12:43:45;6.70;;;6.00;;
66093;SDS011;52876;49.394;10.892;2022-10-31T12:46:21;7.70;;;6.00;;
66093;SDS011;52876;49.394;10.892;2022-10-31T12:49:03;7.93;;;6.20;;
66093;SDS011;52876;49.394;10.892;2022-10-31T12:51:45;7.00;;;6.23;;
66093;SDS011;52876;49.394;10.892;2022-10-31T12:54:22;9.50;;;7.37;;
66093;SDS011;52876;49.394;10.892;2022-10-31T12:57:02;7.57;;;6.77;;
66093;SDS011;52876;49.394;10.892;2022-10-31T12:59:35;9.97;;;7.20;;
66093;SDS011;52876;49.394;10.892;2022-10-31T13:02:09;8.87;;;6.27;;
66093;SDS011;52876;49.394;10.892;2022-10-31T13:04:42;9.17;;;6.70;;
66093;SDS011;52876;49.394;10.892;2022-10-31T13:07:14;8.37;;;7.50;;
66093;SDS011;52876;49.394;10.892;2022-10-31T13:09:46;8.10;;;7.30;;
66093;SDS011;52876;49.394;10.892;2022-10-31T13:12:19;12.77;;;7.13;;
66093;SDS011;52876;49.394;10.892;2022-10-31T13:14:47;10.33;;;7.40;;
66093;SDS011;52876;49.394;10.892;2022-10-31T13:17:20;10.33;;;8.50;;
66093;SDS011;52876;49.394;10.892;2022-10-31T13:19:51;12.57;;;7.90;;
66093;SDS011;52876;49.394;10.892;2022-10-31T13:22:24;8.70;;;7.03;;
66093;SDS011;52876;49.394;10.892;2022-10-31T13:24:53;9.80;;;7.93;;
66093;SDS011;52876;49.394;10.892;2022-10-31T13:27:25;10.30;;;8.00;;
66093;SDS011;52876;49.394;10.892;2022-10-31T13:29:56;12.87;;;8.03;;
66093;SDS011;52876;49.394;10.892;2022-10-31T13:32:28;8.50;;;7.33;;
66093;SDS011;52876;49.394;10.892;2022-10-31T13:35:03;9.10;;;8.20;;
66093;SDS011;52876;49.394;10.892;2022-10-31T13:37:37;8.70;;;7.90;;
66093;SDS011;52876;49.394;10.892;2022-10-31T13:40:09;10.47;;;8.13;;
66093;SDS011;52876;49.394;10.892;2022-10-31T13:42:52;9.07;;;8.27;;
66093;SDS011;52876;49.394;10.892;2022-10-31T13:45:23;15.00;;;8.80;;
66093;SDS011;52876;49.394;10.892;2022-10-31T13:47:59;11.77;;;8.60;;
66093;SDS011;52876;49.394;10.892;2022-10-31T13:50:28;12.20;;;7.93;;
66093;SDS011;52876;49.394;10.892;2022-10-31T13:55:40;12.57;;;7.80;;
66093;SDS011;52876;49.394;10.892;2022-10-31T13:58:22;13.10;;;8.47;;
66093;SDS011;52876;49.394;10.892;2022-10-31T14:01:11;8.67;;;7.77;;
66093;SDS011;52876;49.394;10.892;2022-10-31T14:03:41;12.60;;;8.50;;
66093;SDS011;52876;49.394;10.892;2022-10-31T14:06:09;11.97;;;8.27;;
66093;SDS011;52876;49.394;10.892;2022-10-31T14:08:36;10.50;;;8.80;;
66093;SDS011;52876;49.394;10.892;2022-10-31T14:11:06;9.40;;;8.10;;
66093;SDS011;52876;49.394;10.892;2022-10-31T14:13:35;9.80;;;7.73;;
66093;SDS011;52876;49.394;10.892;2022-10-31T14:16:03;9.53;;;8.53;;
66093;SDS011;52876;49.394;10.892;2022-10-31T14:18:32;12.90;;;9.70;;
66093;SDS011;52876;49.394;10.892;2022-10-31T14:21:00;15.17;;;10.53;;
66093;SDS011;52876;49.394;10.892;2022-10-31T14:23:31;11.97;;;10.70;;
66093;SDS011;52876;49.394;10.892;2022-10-31T14:26:16;10.90;;;9.73;;
66093;SDS011;52876;49.394;10.892;2022-10-31T14:28:58;13.90;;;10.00;;
66093;SDS011;52876;49.394;10.892;2022-10-31T14:31:32;13.10;;;9.00;;
66093;SDS011;52876;49.394;10.892;2022-10-31T14:34:01;13.53;;;9.37;;
66093;SDS011;52876;49.394;10.892;2022-10-31T14:36:34;12.03;;;9.73;;